sensor_id;sensor_type;location;lat;lon;timestamp;P1;durP1;ratioP1;P2;durP2;ratioP2
40074;SDS011;26529;51.530;11.754;2022-12-31T00:01:19;24.80;;;13.35;;
40074;SDS011;26529;51.530;11.754;2022-12-31T00:03:46;20.77;;;11.32;;
40074;SDS011;26529;51.530;11.754;2022-12-31T00:06:16;28.85;;;12.82;;
40074;SDS011;26529;51.530;11.754;2022-12-31T00:08:42;24.92;;;12.52;;
40074;SDS011;26529;51.530;11.754;2022-12-31T00:11:09;23.60;;;11.90;;
40074;SDS011;26529;51.530;11.754;2022-12-31T00:13:34;21.23;;;11.77;;
40074;SDS011;26529;51.530;11.754;2022-12-31T00:16:07;21.65;;;11.98;;
40074;SDS011;26529;51.530;11.754;2022-12-31T00:18:34;22.90;;;11.85;;
40074;SDS011;26529;51.530;11.754;2022-12-31T00:21:03;19.77;;;11.15;;
40074;SDS011;26529;51.530;11.754;2022-12-31T00:23:32;19.33;;;10.63;;
40074;SDS011;26529;51.530;11.754;2022-12-31T00:26:06;24.13;;;11.68;;
40074;SDS011;26529;51.530;11.754;2022-12-31T00:28:39;20.42;;;11.27;;
40074;SDS011;26529;51.530;11.754;2022-12-31T00:31:10;20.63;;;10.88;;
40074;SDS011;26529;51.530;11.754;2022-12-31T00:33:37;21.48;;;10.70;;
40074;SDS011;26529;51.530;11.754;2022-12-31T00:36:08;20.45;;;10.82;;
40074;SDS011;26529;51.530;11.754;2022-12-31T00:38:38;19.40;;;10.43;;
40074;SDS011;26529;51.530;11.754;2022-12-31T00:41:05;20.92;;;10.38;;
40074;SDS011;26529;51.530;11.754;2022-12-31T00:43:31;19.45;;;9.88;;
40074;SDS011;26529;51.530;11.754;2022-12-31T00:45:57;22.50;;;9.95;;
40074;SDS011;26529;51.530;11.754;2022-12-31T00:48:22;21.10;;;10.43;;
40074;SDS011;26529;51.530;11.754;2022-12-31T00:50:48;16.60;;;9.68;;
40074;SDS011;26529;51.530;11.754;2022-12-31T00:53:13;19.00;;;9.93;;
40074;SDS011;26529;51.530;11.754;2022-12-31T00:55:40;20.05;;;9.88;;
40074;SDS011;26529;51.530;11.754;2022-12-31T00:58:05;21.75;;;10.00;;
40074;SDS011;26529;51.530;11.754;2022-12-31T01:00:31;17.15;;;8.93;;
40074;SDS011;26529;51.530;11.754;2022-12-31T01:02:56;18.73;;;10.20;;
40074;SDS011;26529;51.530;11.754;2022-12-31T01:05:22;20.35;;;9.52;;
40074;SDS011;26529;51.530;11.754;2022-12-31T01:07:47;15.85;;;8.70;;
40074;SDS011;26529;51.530;11.754;2022-12-31T01:10:13;18.00;;;9.75;;
40074;SDS011;26529;51.530;11.754;2022-12-31T01:12:58;16.60;;;8.50;;
40074;SDS011;26529;51.530;11.754;2022-12-31T01:15:23;15.73;;;8.18;;
40074;SDS011;26529;51.530;11.754;2022-12-31T01:17:49;14.23;;;8.43;;
40074;SDS011;26529;51.530;11.754;2022-12-31T01:20:15;16.60;;;9.18;;
40074;SDS011;26529;51.530;11.754;2022-12-31T01:22:40;21.15;;;8.75;;
40074;SDS011;26529;51.530;11.754;2022-12-31T01:25:06;17.10;;;8.75;;
40074;SDS011;26529;51.530;11.754;2022-12-31T01:27:31;17.10;;;9.05;;
40074;SDS011;26529;51.530;11.754;2022-12-31T01:29:57;13.40;;;7.88;;
40074;SDS011;26529;51.530;11.754;2022-12-31T01:32:22;15.73;;;8.60;;
40074;SDS011;26529;51.530;11.754;2022-12-31T01:34:47;18.45;;;8.40;;
40074;SDS011;26529;51.530;11.754;2022-12-31T01:37:13;15.00;;;8.10;;
40074;SDS011;26529;51.530;11.754;2022-12-31T01:39:38;17.00;;;8.30;;
40074;SDS011;26529;51.530;11.754;2022-12-31T01:42:04;12.68;;;7.20;;
40074;SDS011;26529;51.530;11.754;2022-12-31T01:46:59;14.05;;;7.20;;
40074;SDS011;26529;51.530;11.754;2022-12-31T01:49:29;15.00;;;7.75;;
40074;SDS011;26529;51.530;11.754;2022-12-31T01:52:10;17.05;;;8.57;;
40074;SDS011;26529;51.530;11.754;2022-12-31T01:54:58;16.33;;;8.27;;
40074;SDS011;26529;51.530;11.754;2022-12-31T01:57:33;13.82;;;8.32;;
40074;SDS011;26529;51.530;11.754;2022-12-31T02:00:00;12.80;;;6.75;;
40074;SDS011;26529;51.530;11.754;2022-12-31T02:02:29;13.63;;;7.20;;
40074;SDS011;26529;51.530;11.754;2022-12-31T02:04:54;17.35;;;7.30;;
40074;SDS011;26529;51.530;11.754;2022-12-31T02:07:22;14.88;;;7.90;;
40074;SDS011;26529;51.530;11.754;2022-12-31T02:09:48;14.48;;;7.20;;
40074;SDS011;26529;51.530;11.754;2022-12-31T02:12:13;14.57;;;6.97;;
40074;SDS011;26529;51.530;11.754;2022-12-31T02:14:46;17.63;;;7.60;;
40074;SDS011;26529;51.530;11.754;2022-12-31T02:23:05;13.60;;;6.30;;
40074;SDS011;26529;51.530;11.754;2022-12-31T02:26:03;14.77;;;6.90;;
40074;SDS011;26529;51.530;11.754;2022-12-31T02:31:48;13.30;;;7.25;;
40074;SDS011;26529;51.530;11.754;2022-12-31T02:34:33;18.52;;;6.95;;
40074;SDS011;26529;51.530;11.754;2022-12-31T02:37:02;11.30;;;6.45;;
40074;SDS011;26529;51.530;11.754;2022-12-31T02:39:32;13.00;;;6.25;;
40074;SDS011;26529;51.530;11.754;2022-12-31T02:41:59;14.13;;;6.53;;
40074;SDS011;26529;51.530;11.754;2022-12-31T02:44:26;11.77;;;6.85;;
40074;SDS011;26529;51.530;11.754;2022-12-31T02:55:17;14.40;;;6.15;;
40074;SDS011;26529;51.530;11.754;2022-12-31T02:58:06;10.85;;;5.63;;
40074;SDS011;26529;51.530;11.754;2022-12-31T03:00:38;10.13;;;6.45;;
40074;SDS011;26529;51.530;11.754;2022-12-31T03:03:27;10.02;;;5.28;;
40074;SDS011;26529;51.530;11.754;2022-12-31T03:05:53;12.48;;;6.38;;
40074;SDS011;26529;51.530;11.754;2022-12-31T03:08:23;11.57;;;5.72;;
40074;SDS011;26529;51.530;11.754;2022-12-31T03:10:50;13.27;;;5.85;;
40074;SDS011;26529;51.530;11.754;2022-12-31T03:13:17;13.93;;;5.78;;
40074;SDS011;26529;51.530;11.754;2022-12-31T03:15:42;9.65;;;5.65;;
40074;SDS011;26529;51.530;11.754;2022-12-31T03:18:08;13.15;;;5.85;;
40074;SDS011;26529;51.530;11.754;2022-12-31T03:20:37;12.50;;;5.85;;
40074;SDS011;26529;51.530;11.754;2022-12-31T03:23:39;12.90;;;5.57;;
40074;SDS011;26529;51.530;11.754;2022-12-31T03:26:10;12.15;;;5.80;;
40074;SDS011;26529;51.530;11.754;2022-12-31T03:28:37;10.95;;;6.38;;
40074;SDS011;26529;51.530;11.754;2022-12-31T03:31:04;9.50;;;5.53;;
40074;SDS011;26529;51.530;11.754;2022-12-31T03:33:31;9.02;;;4.80;;
40074;SDS011;26529;51.530;11.754;2022-12-31T03:36:01;8.60;;;5.38;;
40074;SDS011;26529;51.530;11.754;2022-12-31T03:38:28;11.27;;;5.68;;
40074;SDS011;26529;51.530;11.754;2022-12-31T03:40:53;7.75;;;4.80;;
40074;SDS011;26529;51.530;11.754;2022-12-31T03:43:19;9.35;;;4.93;;
40074;SDS011;26529;51.530;11.754;2022-12-31T03:45:48;10.20;;;5.60;;
40074;SDS011;26529;51.530;11.754;2022-12-31T03:48:15;10.77;;;5.57;;
40074;SDS011;26529;51.530;11.754;2022-12-31T03:50:41;10.00;;;4.60;;
40074;SDS011;26529;51.530;11.754;2022-12-31T03:53:07;9.88;;;5.15;;
40074;SDS011;26529;51.530;11.754;2022-12-31T03:55:33;10.00;;;4.97;;
40074;SDS011;26529;51.530;11.754;2022-12-31T03:57:58;10.30;;;5.43;;
40074;SDS011;26529;51.530;11.754;2022-12-31T04:00:24;10.30;;;4.75;;
40074;SDS011;26529;51.530;11.754;2022-12-31T04:02:49;9.98;;;4.63;;
40074;SDS011;26529;51.530;11.754;2022-12-31T04:05:15;9.07;;;4.85;;
40074;SDS011;26529;51.530;11.754;2022-12-31T04:07:42;7.78;;;4.43;;
40074;SDS011;26529;51.530;11.754;2022-12-31T04:10:09;7.53;;;4.10;;
40074;SDS011;26529;51.530;11.754;2022-12-31T04:12:36;9.07;;;4.72;;
40074;SDS011;26529;51.530;11.754;2022-12-31T04:15:01;9.68;;;4.75;;
40074;SDS011;26529;51.530;11.754;2022-12-31T04:17:27;9.88;;;5.10;;
40074;SDS011;26529;51.530;11.754;2022-12-31T04:19:53;10.38;;;4.70;;
40074;SDS011;26529;51.530;11.754;2022-12-31T04:22:18;11.68;;;5.28;;
40074;SDS011;26529;51.530;11.754;2022-12-31T04:24:44;8.43;;;4.25;;
40074;SDS011;26529;51.530;11.754;2022-12-31T04:27:10;8.90;;;4.13;;
40074;SDS011;26529;51.530;11.754;2022-12-31T04:29:36;8.52;;;4.05;;
40074;SDS011;26529;51.530;11.754;2022-12-31T04:32:02;8.25;;;4.50;;
40074;SDS011;26529;51.530;11.754;2022-12-31T04:34:28;7.30;;;3.88;;
40074;SDS011;26529;51.530;11.754;2022-12-31T04:36:54;7.72;;;4.03;;
40074;SDS011;26529;51.530;11.754;2022-12-31T04:39:19;7.78;;;4.35;;
40074;SDS011;26529;51.530;11.754;2022-12-31T04:41:44;8.80;;;3.97;;
40074;SDS011;26529;51.530;11.754;2022-12-31T04:44:10;9.90;;;4.07;;
40074;SDS011;26529;51.530;11.754;2022-12-31T04:46:36;6.72;;;3.83;;
40074;SDS011;26529;51.530;11.754;2022-12-31T04:49:02;7.82;;;3.83;;
40074;SDS011;26529;51.530;11.754;2022-12-31T04:51:28;7.55;;;3.97;;
40074;SDS011;26529;51.530;11.754;2022-12-31T04:53:54;9.15;;;4.30;;
40074;SDS011;26529;51.530;11.754;2022-12-31T04:56:20;6.03;;;3.50;;
40074;SDS011;26529;51.530;11.754;2022-12-31T04:58:45;6.88;;;3.72;;
40074;SDS011;26529;51.530;11.754;2022-12-31T05:01:12;8.38;;;3.80;;
40074;SDS011;26529;51.530;11.754;2022-12-31T05:03:38;7.03;;;3.55;;
40074;SDS011;26529;51.530;11.754;2022-12-31T05:06:04;7.10;;;3.63;;
40074;SDS011;26529;51.530;11.754;2022-12-31T05:08:36;6.60;;;3.42;;
40074;SDS011;26529;51.530;11.754;2022-12-31T05:11:01;5.80;;;3.80;;
40074;SDS011;26529;51.530;11.754;2022-12-31T05:13:26;5.05;;;3.00;;
40074;SDS011;26529;51.530;11.754;2022-12-31T05:15:52;7.10;;;3.40;;
40074;SDS011;26529;51.530;11.754;2022-12-31T05:18:18;7.88;;;3.90;;
40074;SDS011;26529;51.530;11.754;2022-12-31T05:20:44;6.40;;;3.58;;
40074;SDS011;26529;51.530;11.754;2022-12-31T05:23:10;9.82;;;3.92;;
40074;SDS011;26529;51.530;11.754;2022-12-31T05:25:36;7.13;;;3.72;;
40074;SDS011;26529;51.530;11.754;2022-12-31T05:28:02;8.07;;;2.92;;
40074;SDS011;26529;51.530;11.754;2022-12-31T05:30:28;6.85;;;4.05;;
40074;SDS011;26529;51.530;11.754;2022-12-31T05:32:53;7.20;;;3.53;;
40074;SDS011;26529;51.530;11.754;2022-12-31T05:35:19;4.93;;;3.35;;
40074;SDS011;26529;51.530;11.754;2022-12-31T05:37:44;4.63;;;3.17;;
40074;SDS011;26529;51.530;11.754;2022-12-31T05:40:10;5.88;;;3.30;;
40074;SDS011;26529;51.530;11.754;2022-12-31T05:42:36;6.03;;;3.17;;
40074;SDS011;26529;51.530;11.754;2022-12-31T05:45:01;5.20;;;3.30;;
40074;SDS011;26529;51.530;11.754;2022-12-31T05:47:27;5.47;;;3.22;;
40074;SDS011;26529;51.530;11.754;2022-12-31T05:49:53;5.95;;;3.15;;
40074;SDS011;26529;51.530;11.754;2022-12-31T05:52:18;5.05;;;3.17;;
40074;SDS011;26529;51.530;11.754;2022-12-31T05:54:44;6.55;;;3.58;;
40074;SDS011;26529;51.530;11.754;2022-12-31T05:57:10;9.07;;;3.42;;
40074;SDS011;26529;51.530;11.754;2022-12-31T05:59:35;6.63;;;2.90;;
40074;SDS011;26529;51.530;11.754;2022-12-31T06:02:01;6.00;;;3.35;;
40074;SDS011;26529;51.530;11.754;2022-12-31T06:04:26;7.38;;;3.53;;
40074;SDS011;26529;51.530;11.754;2022-12-31T06:06:52;5.47;;;2.80;;
40074;SDS011;26529;51.530;11.754;2022-12-31T06:09:17;6.40;;;2.97;;
40074;SDS011;26529;51.530;11.754;2022-12-31T06:11:44;6.47;;;3.13;;
40074;SDS011;26529;51.530;11.754;2022-12-31T06:14:10;6.53;;;3.20;;
40074;SDS011;26529;51.530;11.754;2022-12-31T06:16:36;6.38;;;2.88;;
40074;SDS011;26529;51.530;11.754;2022-12-31T06:19:03;6.38;;;2.90;;
40074;SDS011;26529;51.530;11.754;2022-12-31T06:21:28;4.90;;;2.50;;
40074;SDS011;26529;51.530;11.754;2022-12-31T06:23:54;6.95;;;2.58;;
40074;SDS011;26529;51.530;11.754;2022-12-31T06:26:19;6.05;;;2.70;;
40074;SDS011;26529;51.530;11.754;2022-12-31T06:28:45;5.72;;;2.97;;
40074;SDS011;26529;51.530;11.754;2022-12-31T06:31:11;5.07;;;2.65;;
40074;SDS011;26529;51.530;11.754;2022-12-31T06:33:38;6.72;;;2.80;;
40074;SDS011;26529;51.530;11.754;2022-12-31T06:36:05;4.88;;;3.03;;
40074;SDS011;26529;51.530;11.754;2022-12-31T06:38:33;7.28;;;3.50;;
40074;SDS011;26529;51.530;11.754;2022-12-31T06:41:05;6.65;;;2.65;;
40074;SDS011;26529;51.530;11.754;2022-12-31T06:43:31;6.40;;;2.88;;
40074;SDS011;26529;51.530;11.754;2022-12-31T06:45:59;3.75;;;2.53;;
40074;SDS011;26529;51.530;11.754;2022-12-31T06:48:25;5.28;;;2.67;;
40074;SDS011;26529;51.530;11.754;2022-12-31T06:50:50;6.38;;;2.92;;
40074;SDS011;26529;51.530;11.754;2022-12-31T06:53:16;4.63;;;2.40;;
40074;SDS011;26529;51.530;11.754;2022-12-31T06:55:41;2.70;;;1.92;;
40074;SDS011;26529;51.530;11.754;2022-12-31T06:58:10;5.22;;;1.40;;
40074;SDS011;26529;51.530;11.754;2022-12-31T07:00:36;5.30;;;1.23;;
40074;SDS011;26529;51.530;11.754;2022-12-31T07:06:00;2.83;;;1.15;;
40074;SDS011;26529;51.530;11.754;2022-12-31T07:11:20;2.28;;;0.75;;
40074;SDS011;26529;51.530;11.754;2022-12-31T07:14:09;3.08;;;0.82;;
40074;SDS011;26529;51.530;11.754;2022-12-31T07:19:48;4.55;;;1.50;;
40074;SDS011;26529;51.530;11.754;2022-12-31T07:24:45;5.65;;;1.80;;
40074;SDS011;26529;51.530;11.754;2022-12-31T07:29:57;12.23;;;1.95;;
40074;SDS011;26529;51.530;11.754;2022-12-31T07:35:41;20.10;;;2.78;;
40074;SDS011;26529;51.530;11.754;2022-12-31T07:43:59;14.82;;;1.88;;
40074;SDS011;26529;51.530;11.754;2022-12-31T07:49:20;23.27;;;2.20;;
40074;SDS011;26529;51.530;11.754;2022-12-31T07:51:46;13.23;;;1.80;;
40074;SDS011;26529;51.530;11.754;2022-12-31T07:54:11;38.30;;;2.55;;
40074;SDS011;26529;51.530;11.754;2022-12-31T07:56:37;16.15;;;2.47;;
40074;SDS011;26529;51.530;11.754;2022-12-31T08:05:07;30.98;;;3.72;;
40074;SDS011;26529;51.530;11.754;2022-12-31T08:07:46;24.23;;;3.67;;
40074;SDS011;26529;51.530;11.754;2022-12-31T08:13:03;25.98;;;2.67;;
40074;SDS011;26529;51.530;11.754;2022-12-31T08:15:33;27.77;;;3.72;;
40074;SDS011;26529;51.530;11.754;2022-12-31T08:18:01;20.67;;;3.08;;
40074;SDS011;26529;51.530;11.754;2022-12-31T08:20:27;24.48;;;2.90;;
40074;SDS011;26529;51.530;11.754;2022-12-31T08:28:24;30.38;;;3.72;;
40074;SDS011;26529;51.530;11.754;2022-12-31T08:31:17;28.35;;;4.10;;
40074;SDS011;26529;51.530;11.754;2022-12-31T08:33:51;27.63;;;3.40;;
40074;SDS011;26529;51.530;11.754;2022-12-31T08:36:30;37.53;;;3.85;;
40074;SDS011;26529;51.530;11.754;2022-12-31T08:39:03;42.15;;;4.80;;
40074;SDS011;26529;51.530;11.754;2022-12-31T08:49:55;17.73;;;2.35;;
40074;SDS011;26529;51.530;11.754;2022-12-31T08:52:22;21.80;;;2.42;;
40074;SDS011;26529;51.530;11.754;2022-12-31T08:54:49;19.25;;;2.88;;
40074;SDS011;26529;51.530;11.754;2022-12-31T09:05:25;12.45;;;2.20;;
40074;SDS011;26529;51.530;11.754;2022-12-31T09:08:12;12.50;;;2.20;;
40074;SDS011;26529;51.530;11.754;2022-12-31T09:16:21;10.88;;;2.45;;
40074;SDS011;26529;51.530;11.754;2022-12-31T09:18:56;13.32;;;2.53;;
40074;SDS011;26529;51.530;11.754;2022-12-31T09:21:21;12.23;;;2.05;;
40074;SDS011;26529;51.530;11.754;2022-12-31T09:23:47;15.77;;;2.67;;
40074;SDS011;26529;51.530;11.754;2022-12-31T09:29:08;14.63;;;1.90;;
40074;SDS011;26529;51.530;11.754;2022-12-31T09:32:07;9.88;;;1.92;;
40074;SDS011;26529;51.530;11.754;2022-12-31T09:34:36;16.85;;;2.17;;
40074;SDS011;26529;51.530;11.754;2022-12-31T09:37:21;11.52;;;1.92;;
40074;SDS011;26529;51.530;11.754;2022-12-31T09:40:21;12.05;;;2.13;;
40074;SDS011;26529;51.530;11.754;2022-12-31T09:42:59;8.65;;;1.88;;
40074;SDS011;26529;51.530;11.754;2022-12-31T09:48:36;13.82;;;1.77;;
40074;SDS011;26529;51.530;11.754;2022-12-31T09:51:25;11.18;;;1.73;;
40074;SDS011;26529;51.530;11.754;2022-12-31T10:02:28;7.50;;;1.60;;
40074;SDS011;26529;51.530;11.754;2022-12-31T10:07:56;9.98;;;1.58;;
40074;SDS011;26529;51.530;11.754;2022-12-31T10:10:45;8.00;;;1.70;;
40074;SDS011;26529;51.530;11.754;2022-12-31T10:13:26;6.43;;;1.55;;
40074;SDS011;26529;51.530;11.754;2022-12-31T10:18:49;10.48;;;1.88;;
40074;SDS011;26529;51.530;11.754;2022-12-31T10:24:16;10.18;;;2.20;;
40074;SDS011;26529;51.530;11.754;2022-12-31T10:27:06;11.35;;;1.70;;
40074;SDS011;26529;51.530;11.754;2022-12-31T10:32:50;5.70;;;1.23;;
40074;SDS011;26529;51.530;11.754;2022-12-31T10:35:37;8.10;;;1.40;;
40074;SDS011;26529;51.530;11.754;2022-12-31T10:49:23;6.60;;;1.25;;
40074;SDS011;26529;51.530;11.754;2022-12-31T10:52:06;5.22;;;1.48;;
40074;SDS011;26529;51.530;11.754;2022-12-31T11:01:00;5.57;;;1.45;;
40074;SDS011;26529;51.530;11.754;2022-12-31T11:03:41;12.07;;;1.38;;
40074;SDS011;26529;51.530;11.754;2022-12-31T11:09:23;5.90;;;1.23;;
40074;SDS011;26529;51.530;11.754;2022-12-31T11:36:40;13.18;;;1.88;;
40074;SDS011;26529;51.530;11.754;2022-12-31T11:45:12;13.57;;;2.00;;
40074;SDS011;26529;51.530;11.754;2022-12-31T11:48:03;14.52;;;2.17;;
40074;SDS011;26529;51.530;11.754;2022-12-31T11:56:18;14.88;;;2.15;;
40074;SDS011;26529;51.530;11.754;2022-12-31T11:58:50;17.33;;;2.05;;
40074;SDS011;26529;51.530;11.754;2022-12-31T12:01:21;16.45;;;2.95;;
40074;SDS011;26529;51.530;11.754;2022-12-31T12:03:54;34.70;;;3.08;;
40074;SDS011;26529;51.530;11.754;2022-12-31T12:06:27;16.52;;;2.45;;
40074;SDS011;26529;51.530;11.754;2022-12-31T12:08:55;17.02;;;2.53;;
40074;SDS011;26529;51.530;11.754;2022-12-31T12:11:26;16.73;;;2.35;;
40074;SDS011;26529;51.530;11.754;2022-12-31T12:13:55;22.00;;;2.33;;
40074;SDS011;26529;51.530;11.754;2022-12-31T12:16:21;16.17;;;2.72;;
40074;SDS011;26529;51.530;11.754;2022-12-31T12:18:49;18.13;;;2.88;;
40074;SDS011;26529;51.530;11.754;2022-12-31T12:21:25;15.05;;;2.15;;
40074;SDS011;26529;51.530;11.754;2022-12-31T12:23:58;9.77;;;1.70;;
40074;SDS011;26529;51.530;11.754;2022-12-31T12:26:43;13.40;;;1.15;;
40074;SDS011;26529;51.530;11.754;2022-12-31T12:29:10;6.38;;;1.30;;
40074;SDS011;26529;51.530;11.754;2022-12-31T12:31:40;3.70;;;1.08;;
40074;SDS011;26529;51.530;11.754;2022-12-31T12:34:23;7.57;;;1.25;;
40074;SDS011;26529;51.530;11.754;2022-12-31T12:36:53;3.03;;;0.90;;
40074;SDS011;26529;51.530;11.754;2022-12-31T12:39:26;6.30;;;1.20;;
40074;SDS011;26529;51.530;11.754;2022-12-31T12:42:00;8.98;;;1.33;;
40074;SDS011;26529;51.530;11.754;2022-12-31T12:44:27;7.60;;;1.08;;
40074;SDS011;26529;51.530;11.754;2022-12-31T12:46:54;11.48;;;1.55;;
40074;SDS011;26529;51.530;11.754;2022-12-31T12:49:27;4.35;;;1.20;;
40074;SDS011;26529;51.530;11.754;2022-12-31T12:52:22;4.68;;;1.10;;
40074;SDS011;26529;51.530;11.754;2022-12-31T12:57:44;4.43;;;1.35;;
40074;SDS011;26529;51.530;11.754;2022-12-31T13:00:24;5.03;;;1.17;;
40074;SDS011;26529;51.530;11.754;2022-12-31T13:03:02;5.55;;;1.08;;
40074;SDS011;26529;51.530;11.754;2022-12-31T13:08:36;8.40;;;1.10;;
40074;SDS011;26529;51.530;11.754;2022-12-31T13:11:22;3.60;;;0.60;;
40074;SDS011;26529;51.530;11.754;2022-12-31T13:14:12;8.85;;;1.50;;
40074;SDS011;26529;51.530;11.754;2022-12-31T13:17:43;5.10;;;0.98;;
40074;SDS011;26529;51.530;11.754;2022-12-31T13:19:55;6.95;;;1.65;;
40074;SDS011;26529;51.530;11.754;2022-12-31T13:22:30;10.07;;;1.20;;
40074;SDS011;26529;51.530;11.754;2022-12-31T13:25:18;8.77;;;1.13;;
40074;SDS011;26529;51.530;11.754;2022-12-31T13:27:51;5.05;;;1.00;;
40074;SDS011;26529;51.530;11.754;2022-12-31T13:30:20;6.43;;;1.33;;
40074;SDS011;26529;51.530;11.754;2022-12-31T13:32:54;6.90;;;0.90;;
40074;SDS011;26529;51.530;11.754;2022-12-31T13:35:28;5.80;;;1.20;;
40074;SDS011;26529;51.530;11.754;2022-12-31T13:38:02;4.75;;;1.05;;
40074;SDS011;26529;51.530;11.754;2022-12-31T13:43:13;5.65;;;1.10;;
40074;SDS011;26529;51.530;11.754;2022-12-31T13:45:55;4.32;;;1.23;;
40074;SDS011;26529;51.530;11.754;2022-12-31T13:48:33;2.95;;;0.90;;
40074;SDS011;26529;51.530;11.754;2022-12-31T13:53:40;6.00;;;0.77;;
40074;SDS011;26529;51.530;11.754;2022-12-31T13:56:18;5.45;;;0.80;;
40074;SDS011;26529;51.530;11.754;2022-12-31T14:01:32;6.05;;;0.93;;
40074;SDS011;26529;51.530;11.754;2022-12-31T14:04:08;3.70;;;0.93;;
40074;SDS011;26529;51.530;11.754;2022-12-31T14:09:30;5.18;;;1.17;;
40074;SDS011;26529;51.530;11.754;2022-12-31T14:20:22;8.90;;;1.13;;
40074;SDS011;26529;51.530;11.754;2022-12-31T14:23:00;3.45;;;1.13;;
40074;SDS011;26529;51.530;11.754;2022-12-31T14:28:14;4.93;;;1.00;;
40074;SDS011;26529;51.530;11.754;2022-12-31T14:30:43;5.30;;;0.90;;
40074;SDS011;26529;51.530;11.754;2022-12-31T14:38:54;14.25;;;1.17;;
40074;SDS011;26529;51.530;11.754;2022-12-31T14:44:51;9.30;;;1.52;;
40074;SDS011;26529;51.530;11.754;2022-12-31T14:50:20;12.93;;;1.45;;
40074;SDS011;26529;51.530;11.754;2022-12-31T14:55:27;10.88;;;1.73;;
40074;SDS011;26529;51.530;11.754;2022-12-31T14:57:55;9.60;;;1.55;;
40074;SDS011;26529;51.530;11.754;2022-12-31T15:00:29;17.90;;;1.90;;
40074;SDS011;26529;51.530;11.754;2022-12-31T15:05:37;17.88;;;2.22;;
40074;SDS011;26529;51.530;11.754;2022-12-31T15:08:20;13.63;;;2.08;;
40074;SDS011;26529;51.530;11.754;2022-12-31T15:11:10;11.70;;;1.48;;
40074;SDS011;26529;51.530;11.754;2022-12-31T15:14:20;23.30;;;2.67;;
40074;SDS011;26529;51.530;11.754;2022-12-31T15:19:50;18.42;;;2.75;;
40074;SDS011;26529;51.530;11.754;2022-12-31T15:24:55;17.20;;;2.10;;
40074;SDS011;26529;51.530;11.754;2022-12-31T15:29:54;25.95;;;2.95;;
40074;SDS011;26529;51.530;11.754;2022-12-31T15:32:39;27.00;;;3.17;;
40074;SDS011;26529;51.530;11.754;2022-12-31T15:37:44;14.25;;;2.45;;
40074;SDS011;26529;51.530;11.754;2022-12-31T15:40:27;22.17;;;2.95;;
40074;SDS011;26529;51.530;11.754;2022-12-31T15:43:01;21.30;;;1.95;;
40074;SDS011;26529;51.530;11.754;2022-12-31T15:45:36;17.48;;;2.60;;
40074;SDS011;26529;51.530;11.754;2022-12-31T15:48:13;16.98;;;2.17;;
40074;SDS011;26529;51.530;11.754;2022-12-31T15:50:42;9.85;;;1.90;;
40074;SDS011;26529;51.530;11.754;2022-12-31T15:53:09;14.43;;;1.85;;
40074;SDS011;26529;51.530;11.754;2022-12-31T15:55:51;15.15;;;2.25;;
40074;SDS011;26529;51.530;11.754;2022-12-31T15:58:22;17.92;;;1.98;;
40074;SDS011;26529;51.530;11.754;2022-12-31T16:03:57;15.70;;;2.35;;
40074;SDS011;26529;51.530;11.754;2022-12-31T16:06:29;16.33;;;2.15;;
40074;SDS011;26529;51.530;11.754;2022-12-31T16:08:57;17.70;;;2.63;;
40074;SDS011;26529;51.530;11.754;2022-12-31T16:11:23;12.50;;;2.05;;
40074;SDS011;26529;51.530;11.754;2022-12-31T16:13:51;9.93;;;1.88;;
40074;SDS011;26529;51.530;11.754;2022-12-31T16:18:51;8.95;;;1.67;;
40074;SDS011;26529;51.530;11.754;2022-12-31T16:21:28;14.10;;;1.42;;
40074;SDS011;26529;51.530;11.754;2022-12-31T16:24:22;9.45;;;1.23;;
40074;SDS011;26529;51.530;11.754;2022-12-31T16:26:52;12.07;;;1.55;;
40074;SDS011;26529;51.530;11.754;2022-12-31T16:29:20;10.70;;;1.95;;
40074;SDS011;26529;51.530;11.754;2022-12-31T16:31:48;9.80;;;1.42;;
40074;SDS011;26529;51.530;11.754;2022-12-31T16:34:16;9.85;;;2.00;;
40074;SDS011;26529;51.530;11.754;2022-12-31T16:37:00;9.02;;;1.75;;
40074;SDS011;26529;51.530;11.754;2022-12-31T16:39:28;8.30;;;1.90;;
40074;SDS011;26529;51.530;11.754;2022-12-31T16:44:48;11.82;;;1.90;;
40074;SDS011;26529;51.530;11.754;2022-12-31T16:47:18;7.80;;;1.33;;
40074;SDS011;26529;51.530;11.754;2022-12-31T16:49:55;7.70;;;1.40;;
40074;SDS011;26529;51.530;11.754;2022-12-31T16:55:08;7.90;;;1.45;;
40074;SDS011;26529;51.530;11.754;2022-12-31T16:57:38;6.72;;;1.35;;
40074;SDS011;26529;51.530;11.754;2022-12-31T17:00:06;6.82;;;1.42;;
40074;SDS011;26529;51.530;11.754;2022-12-31T17:02:33;6.78;;;0.90;;
40074;SDS011;26529;51.530;11.754;2022-12-31T17:05:21;9.95;;;1.98;;
40074;SDS011;26529;51.530;11.754;2022-12-31T17:07:48;6.93;;;1.35;;
40074;SDS011;26529;51.530;11.754;2022-12-31T17:12:52;9.07;;;1.63;;
40074;SDS011;26529;51.530;11.754;2022-12-31T17:15:22;8.38;;;1.40;;
40074;SDS011;26529;51.530;11.754;2022-12-31T17:18:00;6.22;;;1.48;;
40074;SDS011;26529;51.530;11.754;2022-12-31T17:20:27;5.30;;;1.02;;
40074;SDS011;26529;51.530;11.754;2022-12-31T17:22:56;5.00;;;0.88;;
40074;SDS011;26529;51.530;11.754;2022-12-31T17:25:31;12.38;;;1.70;;
40074;SDS011;26529;51.530;11.754;2022-12-31T17:28:03;10.75;;;1.80;;
40074;SDS011;26529;51.530;11.754;2022-12-31T17:33:39;5.22;;;1.35;;
40074;SDS011;26529;51.530;11.754;2022-12-31T17:35:46;18.63;;;2.35;;
40074;SDS011;26529;51.530;11.754;2022-12-31T17:40:48;17.63;;;3.17;;
40074;SDS011;26529;51.530;11.754;2022-12-31T17:43:16;17.00;;;2.20;;
40074;SDS011;26529;51.530;11.754;2022-12-31T17:45:43;27.48;;;3.00;;
40074;SDS011;26529;51.530;11.754;2022-12-31T17:48:14;28.55;;;3.45;;
40074;SDS011;26529;51.530;11.754;2022-12-31T17:53:13;17.92;;;3.10;;
40074;SDS011;26529;51.530;11.754;2022-12-31T17:55:39;31.75;;;3.70;;
40074;SDS011;26529;51.530;11.754;2022-12-31T17:58:20;36.22;;;3.47;;
40074;SDS011;26529;51.530;11.754;2022-12-31T18:00:51;32.33;;;3.33;;
40074;SDS011;26529;51.530;11.754;2022-12-31T18:03:17;21.73;;;3.53;;
40074;SDS011;26529;51.530;11.754;2022-12-31T18:05:43;23.75;;;2.90;;
40074;SDS011;26529;51.530;11.754;2022-12-31T18:08:08;26.50;;;3.72;;
40074;SDS011;26529;51.530;11.754;2022-12-31T18:10:34;38.75;;;3.53;;
40074;SDS011;26529;51.530;11.754;2022-12-31T18:13:03;20.60;;;3.10;;
40074;SDS011;26529;51.530;11.754;2022-12-31T18:15:30;24.50;;;3.03;;
40074;SDS011;26529;51.530;11.754;2022-12-31T18:17:55;26.85;;;3.60;;
40074;SDS011;26529;51.530;11.754;2022-12-31T18:20:21;25.15;;;3.50;;
40074;SDS011;26529;51.530;11.754;2022-12-31T18:22:48;27.67;;;3.17;;
40074;SDS011;26529;51.530;11.754;2022-12-31T18:25:21;18.42;;;3.53;;
40074;SDS011;26529;51.530;11.754;2022-12-31T18:27:48;27.40;;;3.25;;
40074;SDS011;26529;51.530;11.754;2022-12-31T18:30:14;15.90;;;2.95;;
40074;SDS011;26529;51.530;11.754;2022-12-31T18:32:43;27.88;;;3.35;;
40074;SDS011;26529;51.530;11.754;2022-12-31T18:35:17;22.75;;;3.75;;
40074;SDS011;26529;51.530;11.754;2022-12-31T18:37:44;19.45;;;2.55;;
40074;SDS011;26529;51.530;11.754;2022-12-31T18:40:11;28.15;;;3.53;;
40074;SDS011;26529;51.530;11.754;2022-12-31T18:42:37;28.63;;;3.88;;
40074;SDS011;26529;51.530;11.754;2022-12-31T18:45:04;16.73;;;3.33;;
40074;SDS011;26529;51.530;11.754;2022-12-31T18:47:37;28.83;;;4.45;;
40074;SDS011;26529;51.530;11.754;2022-12-31T18:50:03;26.60;;;3.25;;